Time;durP1;ratioP1;P1;durP2;ratioP2;P2;SDS_P1;SDS_P2;PMS_P1;PMS_P2;Temp;Humidity;BMP_temperature;BMP_pressure;BME280_temperature;BME280_humidity;BME280_pressure;Samples;Min_cycle;Max_cycle;Signal;HPM_P1;HPM_P2
2023/10/31 00:00:44;;;;;;;2.67;2.10;;;12.20;99.90;;;;;;5077801;28;20202;-80
2023/10/31 00:03:11;;;;;;;6.77;2.67;;;12.20;99.90;;;;;;5080698;28;20301;-80
2023/10/31 00:05:38;;;;;;;4.47;2.37;;;12.30;99.90;;;;;;5079366;28;20248;-78
2023/10/31 00:08:05;;;;;;;4.13;2.50;;;12.30;99.90;;;;;;5077978;28;20221;-79
2023/10/31 00:10:33;;;;;;;3.03;2.63;;;12.30;99.90;;;;;;5078792;28;20226;-79
2023/10/31 00:13:00;;;;;;;3.53;2.30;;;12.40;99.90;;;;;;5079407;28;20237;-79
2023/10/31 00:15:29;;;;;;;2.33;2.13;;;12.30;99.90;;;;;;5078061;28;20718;-78
2023/10/31 00:17:55;;;;;;;2.40;2.20;;;12.30;99.90;;;;;;5073975;28;20207;-78
2023/10/31 00:20:22;;;;;;;6.30;2.87;;;12.20;99.90;;;;;;5078253;28;20195;-79
2023/10/31 00:22:49;;;;;;;5.00;2.40;;;12.30;99.90;;;;;;5077726;28;20232;-80
2023/10/31 00:25:16;;;;;;;4.10;2.50;;;12.30;99.90;;;;;;5078544;28;20208;-80
2023/10/31 00:27:44;;;;;;;3.20;2.10;;;12.30;99.90;;;;;;5079923;28;20206;-80
2023/10/31 00:30:11;;;;;;;2.63;2.43;;;12.30;99.90;;;;;;5076606;28;20760;-80
2023/10/31 00:32:38;;;;;;;3.07;2.13;;;12.30;99.90;;;;;;5079332;28;20289;-80
2023/10/31 00:35:05;;;;;;;4.60;2.47;;;12.20;99.90;;;;;;5079844;28;20198;-81
2023/10/31 00:37:32;;;;;;;3.00;2.30;;;12.20;99.90;;;;;;5082299;28;20194;-79
2023/10/31 00:39:59;;;;;;;2.37;2.17;;;12.20;99.90;;;;;;5079030;28;20199;-80
2023/10/31 00:42:25;;;;;;;4.17;2.30;;;12.30;99.90;;;;;;5078012;28;20218;-80
2023/10/31 00:44:54;;;;;;;5.53;2.30;;;12.30;99.90;;;;;;5078666;28;20220;-80
2023/10/31 00:47:20;;;;;;;4.10;2.67;;;12.40;99.90;;;;;;5076395;28;20297;-78
2023/10/31 00:49:47;;;;;;;4.07;2.67;;;12.30;99.90;;;;;;5079672;28;20226;-79
2023/10/31 00:52:14;;;;;;;4.30;2.50;;;12.30;99.90;;;;;;5078915;28;20238;-79
2023/10/31 00:54:42;;;;;;;2.67;2.30;;;12.30;99.90;;;;;;5078733;28;20213;-79
2023/10/31 00:57:08;;;;;;;3.17;2.40;;;12.40;99.90;;;;;;5078584;28;20668;-78
2023/10/31 00:59:35;;;;;;;3.97;2.53;;;12.40;99.90;;;;;;5082158;28;20214;-79
2023/10/31 01:02:03;;;;;;;3.97;2.73;;;12.40;99.90;;;;;;5077841;28;20670;-80
2023/10/31 01:04:31;;;;;;;3.40;2.63;;;12.40;99.90;;;;;;5078356;28;20203;-79
2023/10/31 01:06:58;;;;;;;3.23;2.30;;;12.40;99.90;;;;;;5078570;28;20559;-80
2023/10/31 01:09:24;;;;;;;4.50;2.57;;;12.50;99.90;;;;;;5079071;28;20244;-81
2023/10/31 01:11:51;;;;;;;3.75;2.92;;;12.40;99.90;;;;;;5076880;28;20226;-80
2023/10/31 01:14:18;;;;;;;2.75;2.33;;;12.50;99.90;;;;;;5083991;28;20201;-80
2023/10/31 01:16:45;;;;;;;3.40;2.90;;;12.40;99.90;;;;;;5078072;28;20216;-80
2023/10/31 01:19:13;;;;;;;3.00;2.70;;;12.40;99.90;;;;;;5076747;28;20208;-80
2023/10/31 01:21:40;;;;;;;4.50;3.20;;;12.40;99.90;;;;;;5076795;28;20225;-80
2023/10/31 01:24:08;;;;;;;3.90;2.40;;;12.40;99.90;;;;;;5077331;28;20217;-78
2023/10/31 01:26:35;;;;;;;3.97;3.00;;;12.50;99.90;;;;;;5078051;28;20198;-81
2023/10/31 01:29:02;;;;;;;6.33;3.47;;;12.50;99.90;;;;;;5073373;28;20272;-81
2023/10/31 01:31:29;;;;;;;3.73;2.70;;;12.60;99.90;;;;;;5077124;28;20227;-79
2023/10/31 01:33:56;;;;;;;3.78;3.08;;;12.70;99.90;;;;;;5082172;28;20206;-81
2023/10/31 01:36:27;;;;;;;8.00;3.20;;;12.80;99.90;;;;;;5081398;28;20203;-79
2023/10/31 01:38:53;;;;;;;3.53;3.00;;;12.80;99.90;;;;;;5078730;28;20213;-79
2023/10/31 01:41:20;;;;;;;3.67;3.23;;;12.70;99.90;;;;;;5077365;28;20596;-79
2023/10/31 01:43:47;;;;;;;4.10;3.03;;;12.80;99.90;;;;;;5078317;28;20216;-79
2023/10/31 01:46:14;;;;;;;4.33;3.00;;;12.80;99.90;;;;;;5077837;28;20216;-79
2023/10/31 01:48:41;;;;;;;6.87;3.27;;;12.80;99.90;;;;;;5078727;28;20242;-79
2023/10/31 01:51:08;;;;;;;5.53;3.53;;;12.80;99.90;;;;;;5075449;28;20218;-79
2023/10/31 01:53:37;;;;;;;4.93;3.57;;;12.80;99.90;;;;;;5076084;28;20206;-81
2023/10/31 01:56:05;;;;;;;3.20;2.90;;;12.80;99.90;;;;;;5081654;28;20692;-81
2023/10/31 01:58:35;;;;;;;6.50;3.83;;;12.80;99.90;;;;;;5085123;28;20213;-81
2023/10/31 02:01:03;;;;;;;3.23;2.90;;;12.70;99.90;;;;;;5076746;28;20218;-81
2023/10/31 02:03:30;;;;;;;3.67;3.00;;;12.80;99.90;;;;;;5076153;28;20233;-81
2023/10/31 02:05:57;;;;;;;4.37;2.77;;;12.70;99.90;;;;;;5076251;28;20206;-80
2023/10/31 02:08:25;;;;;;;3.77;3.00;;;12.70;99.90;;;;;;5072302;28;20673;-81
2023/10/31 02:10:53;;;;;;;3.30;3.05;;;12.70;99.90;;;;;;5076487;28;20675;-80
2023/10/31 02:13:20;;;;;;;3.50;3.00;;;12.70;99.90;;;;;;5078864;28;20190;-81
2023/10/31 02:15:47;;;;;;;3.30;2.93;;;12.70;99.90;;;;;;5087100;28;20207;-81
2023/10/31 02:18:14;;;;;;;3.90;2.80;;;12.80;99.90;;;;;;5076890;28;20208;-79
2023/10/31 02:20:41;;;;;;;7.78;2.75;;;12.80;99.90;;;;;;5075936;28;20692;-80
2023/10/31 02:23:09;;;;;;;4.60;2.93;;;12.90;99.90;;;;;;5077608;28;20733;-80
2023/10/31 02:25:36;;;;;;;4.03;2.60;;;12.90;99.90;;;;;;5077766;28;20206;-80
2023/10/31 02:28:03;;;;;;;4.33;2.67;;;13.00;99.90;;;;;;5077938;28;20680;-79
2023/10/31 02:30:29;;;;;;;3.13;2.63;;;13.00;99.90;;;;;;5076774;28;20233;-79
2023/10/31 02:32:56;;;;;;;2.77;2.57;;;13.00;99.90;;;;;;5082300;28;20202;-79
2023/10/31 02:35:23;;;;;;;3.63;2.73;;;13.00;99.90;;;;;;5078841;28;20199;-79
2023/10/31 02:37:50;;;;;;;3.43;3.00;;;12.90;99.90;;;;;;5077648;28;20213;-80
2023/10/31 02:40:18;;;;;;;4.60;3.03;;;12.90;99.90;;;;;;5075437;28;20210;-78
2023/10/31 02:42:45;;;;;;;3.70;2.97;;;12.90;99.90;;;;;;5076831;28;20304;-79
2023/10/31 02:45:12;;;;;;;3.63;3.33;;;13.00;99.90;;;;;;5077546;28;20206;-80
2023/10/31 02:47:39;;;;;;;3.10;2.63;;;13.00;99.90;;;;;;5076600;28;20213;-80
2023/10/31 02:50:07;;;;;;;4.83;2.83;;;13.00;99.90;;;;;;5086089;28;20216;-80
2023/10/31 02:52:34;;;;;;;3.63;3.00;;;13.00;99.90;;;;;;5069472;28;20583;-79
2023/10/31 02:55:01;;;;;;;2.80;2.60;;;13.00;99.90;;;;;;5077388;28;20210;-81
2023/10/31 02:57:29;;;;;;;3.37;2.90;;;12.90;99.90;;;;;;5077160;28;20210;-79
2023/10/31 02:59:55;;;;;;;2.80;2.60;;;12.80;99.90;;;;;;5076331;28;20210;-79
2023/10/31 03:02:23;;;;;;;5.13;3.17;;;12.90;99.90;;;;;;5076135;28;20226;-80
2023/10/31 03:04:50;;;;;;;3.27;2.87;;;12.90;99.90;;;;;;5078433;28;20209;-80
2023/10/31 03:07:16;;;;;;;3.60;3.07;;;12.80;99.90;;;;;;5077270;28;20205;-79
2023/10/31 03:09:43;;;;;;;3.80;3.10;;;12.80;99.90;;;;;;5076954;28;20599;-80
2023/10/31 03:12:10;;;;;;;5.87;3.10;;;12.90;99.90;;;;;;5077096;28;20577;-78
2023/10/31 03:14:38;;;;;;;4.23;2.90;;;12.90;99.90;;;;;;5073559;28;20643;-78
2023/10/31 03:17:05;;;;;;;4.23;3.50;;;12.80;99.90;;;;;;5077378;28;20293;-80
2023/10/31 03:19:32;;;;;;;4.23;2.90;;;12.80;99.90;;;;;;5072234;28;20206;-81
2023/10/31 03:21:58;;;;;;;5.37;3.10;;;12.90;99.90;;;;;;5077102;28;20218;-80
2023/10/31 03:24:25;;;;;;;3.13;2.83;;;13.20;1.00;;;;;;5082180;28;20194;-79
2023/10/31 03:26:52;;;;;;;5.27;3.73;;;13.20;99.90;;;;;;5082776;28;20209;-80
2023/10/31 03:29:19;;;;;;;3.33;3.03;;;13.20;99.90;;;;;;5075792;28;20709;-80
2023/10/31 03:31:47;;;;;;;2.57;2.37;;;13.10;1.00;;;;;;5076874;28;20604;-80
2023/10/31 03:34:14;;;;;;;2.67;2.47;;;12.90;99.90;;;;;;5077098;28;20298;-79
2023/10/31 03:36:40;;;;;;;3.53;3.07;;;12.80;76.20;;;;;;5080839;28;20214;-80
2023/10/31 03:39:07;;;;;;;3.57;3.27;;;12.70;1.00;;;;;;5081452;28;20206;-79
2023/10/31 03:41:34;;;;;;;2.77;2.57;;;12.70;1.00;;;;;;5080524;28;20214;-80
2023/10/31 03:44:01;;;;;;;3.80;3.50;;;12.60;99.90;;;;;;5081568;28;20208;-81
2023/10/31 03:46:27;;;;;;;4.23;3.87;;;12.50;99.90;;;;;;5083874;28;20205;-80
2023/10/31 03:48:55;;;;;;;4.43;4.03;;;12.50;99.90;;;;;;5081060;28;20198;-78
2023/10/31 03:51:22;;;;;;;4.93;4.53;;;12.40;99.90;;;;;;5080167;28;20240;-79
2023/10/31 03:53:49;;;;;;;4.30;3.97;;;12.40;99.90;;;;;;5080607;28;20233;-79
2023/10/31 03:56:16;;;;;;;4.93;4.40;;;12.40;1.00;;;;;;5080428;28;20198;-78
2023/10/31 03:58:44;;;;;;;4.90;4.40;;;12.30;1.00;;;;;;5081694;28;20218;-79
2023/10/31 04:01:11;;;;;;;4.60;4.20;;;12.30;1.00;;;;;;5081080;28;20215;-78
2023/10/31 04:03:37;;;;;;;4.20;3.80;;;12.30;1.00;;;;;;5082253;28;20204;-81
2023/10/31 04:06:06;;;;;;;4.20;3.80;;;12.20;1.00;;;;;;5097932;28;20201;-80
2023/10/31 04:08:33;;;;;;;4.20;3.83;;;12.20;1.00;;;;;;5097678;28;20214;-80
2023/10/31 04:10:59;;;;;;;4.30;3.90;;;12.20;1.00;;;;;;5082373;28;20317;-80
2023/10/31 04:13:26;;;;;;;3.30;3.10;;;12.20;1.00;;;;;;5081434;28;20206;-78
2023/10/31 04:15:53;;;;;;;3.13;2.83;;;12.20;1.00;;;;;;5081348;28;20213;-81
2023/10/31 04:18:20;;;;;;;2.93;2.50;;;12.10;1.00;;;;;;5080602;28;20203;-80
2023/10/31 04:20:46;;;;;;;5.07;2.20;;;12.10;1.00;;;;;;5081095;28;20690;-79
2023/10/31 04:23:15;;;;;;;2.03;1.93;;;12.10;99.90;;;;;;5080819;28;20202;-80
2023/10/31 04:25:42;;;;;;;1.90;1.80;;;12.10;99.90;;;;;;5081633;28;20821;-78
2023/10/31 04:28:08;;;;;;;2.37;2.20;;;12.10;99.90;;;;;;5082021;28;20198;-79
2023/10/31 04:30:35;;;;;;;2.60;2.40;;;12.10;99.90;;;;;;5081880;28;20217;-79
2023/10/31 04:33:02;;;;;;;2.60;2.40;;;12.10;99.90;;;;;;5081600;28;20213;-80
2023/10/31 04:35:29;;;;;;;2.37;2.17;;;12.10;99.90;;;;;;5092530;28;20197;-79
2023/10/31 04:37:56;;;;;;;2.53;2.33;;;12.10;99.90;;;;;;5084332;28;20202;-79
2023/10/31 04:40:24;;;;;;;2.40;2.20;;;12.10;99.90;;;;;;5082613;28;20214;-80
2023/10/31 04:42:51;;;;;;;1.67;1.57;;;12.10;99.90;;;;;;5081084;28;20514;-80
2023/10/31 04:45:18;;;;;;;1.60;1.50;;;12.00;99.90;;;;;;5079075;28;20670;-79
2023/10/31 04:47:45;;;;;;;1.60;1.50;;;12.00;99.90;;;;;;5081341;28;20244;-81
2023/10/31 04:50:11;;;;;;;1.30;1.20;;;12.00;99.90;;;;;;5080734;28;20219;-80
2023/10/31 04:52:38;;;;;;;1.37;1.27;;;11.90;99.90;;;;;;5070788;28;20608;-79
2023/10/31 04:55:06;;;;;;;1.93;1.10;;;12.00;99.90;;;;;;5081285;28;20575;-80
2023/10/31 04:57:34;;;;;;;2.17;1.00;;;11.90;7.30;;;;;;5080638;28;20198;-80
2023/10/31 05:00:01;;;;;;;1.37;1.03;;;11.90;1.00;;;;;;5080722;28;20204;-79
2023/10/31 05:02:28;;;;;;;1.13;0.87;;;11.90;1.00;;;;;;5079801;28;20801;-81
2023/10/31 05:04:55;;;;;;;0.77;0.77;;;11.80;31.00;;;;;;5080869;28;20517;-81
2023/10/31 05:07:22;;;;;;;1.97;1.40;;;11.80;1.00;;;;;;5079854;28;20573;-81
2023/10/31 05:09:48;;;;;;;1.40;1.30;;;11.80;1.00;;;;;;5085735;28;20210;-79
2023/10/31 05:12:15;;;;;;;0.30;0.30;;;11.80;1.00;;;;;;5082355;28;20214;-81
2023/10/31 05:14:43;;;;;;;2.17;0.30;;;11.70;1.00;;;;;;5081339;28;20209;-80
2023/10/31 05:17:10;;;;;;;0.30;0.30;;;11.60;1.00;;;;;;5081110;28;20206;-80
2023/10/31 05:19:37;;;;;;;0.30;0.30;;;11.60;1.00;;;;;;5089666;28;20209;-79
2023/10/31 05:22:04;;;;;;;0.30;0.30;;;11.50;1.00;;;;;;5079707;28;20222;-79
2023/10/31 05:24:32;;;;;;;0.60;0.60;;;11.40;1.00;;;;;;5089945;28;20282;-78
2023/10/31 05:26:58;;;;;;;0.73;0.60;;;11.40;1.00;;;;;;5089855;28;20202;-80
2023/10/31 05:29:25;;;;;;;1.23;0.40;;;11.30;1.00;;;;;;5080710;28;20206;-79
2023/10/31 05:31:53;;;;;;;1.27;0.30;;;11.30;1.00;;;;;;5081983;28;20226;-78
2023/10/31 05:34:20;;;;;;;2.07;0.40;;;11.30;1.00;;;;;;5080859;28;20208;-80
2023/10/31 05:36:47;;;;;;;1.07;0.40;;;11.30;1.00;;;;;;5080565;28;20202;-78
2023/10/31 05:39:15;;;;;;;0.40;0.40;;;11.40;1.00;;;;;;5080394;28;20582;-78
2023/10/31 05:41:42;;;;;;;0.67;0.67;;;11.40;1.00;;;;;;5080116;28;20210;-79
2023/10/31 05:44:08;;;;;;;1.13;0.70;;;11.30;1.00;;;;;;5078201;28;20210;-78
2023/10/31 05:46:39;;;;;;;2.00;0.80;;;11.30;1.00;;;;;;5079053;28;20206;-81
2023/10/31 05:49:08;;;;;;;0.93;0.87;;;11.30;1.00;;;;;;5077626;28;20279;-81
2023/10/31 05:51:35;;;;;;;1.10;0.80;;;11.30;1.00;;;;;;5071899;28;20610;-79
2023/10/31 05:54:02;;;;;;;0.90;0.90;;;11.30;1.00;;;;;;5084716;28;20205;-79
2023/10/31 05:56:29;;;;;;;1.60;0.93;;;11.40;1.00;;;;;;5077947;28;20248;-80
2023/10/31 05:58:56;;;;;;;2.30;1.03;;;11.40;1.00;;;;;;5077811;28;20202;-80
2023/10/31 06:01:23;;;;;;;2.37;1.03;;;11.40;1.00;;;;;;5078996;28;20305;-80
2023/10/31 06:03:49;;;;;;;0.83;0.73;;;11.40;1.00;;;;;;5078669;28;20202;-80
2023/10/31 06:06:17;;;;;;;1.73;1.10;;;11.30;1.00;;;;;;5089672;28;20620;-80
2023/10/31 06:08:45;;;;;;;1.17;0.87;;;11.30;1.00;;;;;;5070799;28;20206;-80
2023/10/31 06:11:13;;;;;;;1.83;1.27;;;11.40;1.00;;;;;;5086553;28;20225;-79
2023/10/31 06:13:40;;;;;;;1.60;1.43;;;11.30;1.00;;;;;;5071058;28;20296;-80
2023/10/31 06:16:08;;;;;;;2.57;1.80;;;11.30;1.00;;;;;;5073024;28;20252;-79
2023/10/31 06:18:34;;;;;;;2.80;1.43;;;11.20;1.00;;;;;;5083521;28;20669;-81
2023/10/31 06:21:01;;;;;;;1.47;1.37;;;11.30;1.00;;;;;;5076524;28;20218;-79
2023/10/31 06:23:30;;;;;;;3.37;1.53;;;11.20;1.00;;;;;;5082433;28;20202;-78
2023/10/31 06:25:56;;;;;;;3.97;1.67;;;11.20;1.00;;;;;;5071636;28;20205;-79
2023/10/31 06:28:24;;;;;;;2.20;1.60;;;11.20;1.00;;;;;;5081013;28;20800;-79
2023/10/31 06:30:51;;;;;;;3.33;1.60;;;11.10;1.00;;;;;;5076920;28;20228;-79
2023/10/31 06:33:17;;;;;;;3.57;1.90;;;11.10;1.00;;;;;;5076259;28;20207;-80
2023/10/31 06:35:44;;;;;;;2.77;2.03;;;11.10;45.50;;;;;;5078351;28;20215;-80
2023/10/31 06:38:11;;;;;;;3.33;1.80;;;11.00;70.00;;;;;;5080435;28;20576;-79
2023/10/31 06:40:39;;;;;;;3.73;1.80;;;10.90;94.80;;;;;;5080995;28;20190;-79
2023/10/31 06:43:06;;;;;;;1.80;1.70;;;10.90;99.90;;;;;;5084371;28;20212;-79
2023/10/31 06:45:32;;;;;;;2.20;2.00;;;10.90;99.90;;;;;;5074081;28;20289;-79
2023/10/31 06:47:59;;;;;;;2.30;1.73;;;11.00;99.90;;;;;;5084531;28;20197;-80
2023/10/31 06:50:26;;;;;;;2.57;1.90;;;11.00;51.50;;;;;;5079511;28;20199;-81
2023/10/31 06:52:53;;;;;;;3.10;1.70;;;11.10;38.80;;;;;;5080109;28;20591;-79
2023/10/31 06:55:20;;;;;;;4.17;2.23;;;11.10;81.90;;;;;;5084438;28;20198;-79
2023/10/31 06:57:48;;;;;;;2.67;2.00;;;11.10;45.90;;;;;;5081496;28;20677;-80
2023/10/31 07:00:15;;;;;;;2.30;1.53;;;11.10;1.00;;;;;;5079995;28;20582;-77
2023/10/31 07:02:42;;;;;;;1.90;1.80;;;11.10;23.10;;;;;;5080259;28;20309;-78
2023/10/31 07:05:10;;;;;;;3.73;2.30;;;11.20;99.90;;;;;;5075113;28;20734;-77
2023/10/31 07:07:37;;;;;;;2.30;2.10;;;11.10;86.50;;;;;;5075100;28;20595;-79
2023/10/31 07:10:05;;;;;;;3.70;2.43;;;11.30;77.80;;;;;;5077011;28;20202;-77
2023/10/31 07:12:32;;;;;;;3.27;2.07;;;11.20;84.80;;;;;;5076891;28;20260;-79
2023/10/31 07:15:00;;;;;;;2.83;2.50;;;11.20;99.90;;;;;;5077892;28;20205;-79
2023/10/31 07:17:27;;;;;;;3.90;2.30;;;11.20;99.90;;;;;;5077866;28;20208;-78
2023/10/31 07:19:54;;;;;;;3.57;2.30;;;11.20;99.90;;;;;;5079304;28;20224;-80
2023/10/31 07:22:22;;;;;;;4.37;3.13;;;11.20;99.90;;;;;;5079470;28;20687;-81
2023/10/31 07:24:49;;;;;;;2.77;2.47;;;11.30;99.90;;;;;;5068935;28;20293;-81
2023/10/31 07:27:15;;;;;;;4.77;3.00;;;11.30;99.90;;;;;;5076586;28;20214;-81
2023/10/31 07:29:42;;;;;;;3.97;2.87;;;11.30;99.90;;;;;;5076951;28;20200;-78
2023/10/31 07:32:11;;;;;;;4.40;2.67;;;11.30;99.90;;;;;;5071586;28;20222;-85
2023/10/31 07:34:41;;;;;;;5.10;2.83;;;11.30;99.90;;;;;;5076865;28;20207;-81
2023/10/31 07:37:07;;;;;;;5.20;2.90;;;11.30;99.90;;;;;;5079988;28;20198;-81
2023/10/31 07:39:34;;;;;;;6.03;3.20;;;11.30;99.90;;;;;;5077784;28;20194;-79
2023/10/31 07:42:01;;;;;;;4.70;3.57;;;11.30;1.00;;;;;;5074889;28;20716;-79
2023/10/31 07:44:28;;;;;;;6.03;4.00;;;11.30;1.00;;;;;;5078973;28;20269;-77
2023/10/31 07:46:55;;;;;;;5.70;3.87;;;11.30;1.00;;;;;;5083390;28;20209;-78
2023/10/31 07:49:23;;;;;;;6.27;4.43;;;11.20;1.00;;;;;;5072570;28;20203;-78
2023/10/31 07:51:50;;;;;;;6.63;4.60;;;11.40;1.00;;;;;;5078614;28;20218;-81
2023/10/31 07:54:17;;;;;;;4.93;4.33;;;11.40;1.00;;;;;;5077492;28;20203;-79
2023/10/31 07:56:44;;;;;;;9.87;5.43;;;11.50;1.00;;;;;;5081321;28;20198;-79
2023/10/31 07:59:11;;;;;;;8.27;4.97;;;11.40;1.00;;;;;;5077890;28;20194;-80
2023/10/31 08:01:38;;;;;;;8.07;5.37;;;11.50;1.00;;;;;;5083001;28;20214;-79
2023/10/31 08:04:05;;;;;;;9.37;5.50;;;11.50;1.00;;;;;;5075645;28;20202;-79
2023/10/31 08:06:33;;;;;;;6.50;4.93;;;11.50;1.00;;;;;;5085168;28;20194;-79
2023/10/31 08:09:00;;;;;;;7.47;5.10;;;11.80;1.00;;;;;;5080615;28;20753;-77
2023/10/31 08:11:27;;;;;;;8.20;5.37;;;11.60;1.00;;;;;;5087081;28;20233;-78
2023/10/31 08:13:54;;;;;;;7.27;5.43;;;11.60;1.00;;;;;;5078103;28;20658;-78
2023/10/31 08:16:21;;;;;;;11.13;5.90;;;11.60;1.00;;;;;;5079256;28;20723;-80
2023/10/31 08:18:48;;;;;;;10.47;6.30;;;11.60;1.00;;;;;;5078623;28;20671;-78
2023/10/31 08:21:14;;;;;;;6.63;4.83;;;11.50;1.00;;;;;;5079728;28;20226;-79
2023/10/31 08:23:44;;;;;;;6.67;4.17;;;11.40;1.00;;;;;;5088885;28;20206;-79
2023/10/31 08:26:12;;;;;;;5.47;3.77;;;11.30;1.00;;;;;;5081895;28;20559;-79
2023/10/31 08:28:39;;;;;;;5.80;3.00;;;11.10;1.00;;;;;;5084741;28;20206;-80
2023/10/31 08:31:06;;;;;;;5.60;3.50;;;11.10;1.00;;;;;;5084710;28;20304;-80
2023/10/31 08:33:33;;;;;;;4.27;2.73;;;11.00;99.90;;;;;;5083137;28;20202;-79
2023/10/31 08:36:01;;;;;;;6.93;3.27;;;11.00;1.00;;;;;;5087693;28;20202;-80
2023/10/31 08:38:29;;;;;;;5.67;2.47;;;11.00;1.00;;;;;;5084336;28;20193;-81
2023/10/31 08:40:57;;;;;;;1.23;1.10;;;11.10;1.00;;;;;;5069401;28;20272;-79
2023/10/31 08:43:24;;;;;;;3.03;2.03;;;11.10;99.90;;;;;;5081305;28;20289;-79
2023/10/31 08:45:50;;;;;;;1.33;1.00;;;11.10;99.90;;;;;;5082272;28;20230;-79
2023/10/31 08:48:17;;;;;;;0.73;0.73;;;11.10;1.00;;;;;;5084557;28;20257;-79
2023/10/31 08:50:44;;;;;;;2.03;0.63;;;11.10;1.00;;;;;;5085649;28;20202;-80
2023/10/31 08:53:11;;;;;;;1.03;0.60;;;11.10;1.00;;;;;;5083815;28;20222;-78
2023/10/31 08:55:38;;;;;;;0.93;0.60;;;11.10;99.90;;;;;;5079801;28;20198;-82
2023/10/31 08:58:06;;;;;;;0.90;0.50;;;11.20;99.90;;;;;;5079462;28;20237;-82
2023/10/31 09:00:32;;;;;;;2.00;1.53;;;11.10;28.40;;;;;;5081036;28;20214;-83
2023/10/31 09:02:59;;;;;;;0.80;0.80;;;11.10;99.90;;;;;;5079396;28;20209;-81
2023/10/31 09:05:26;;;;;;;2.10;0.60;;;11.10;25.00;;;;;;5078813;28;20314;-83
2023/10/31 09:07:53;;;;;;;0.60;0.53;;;11.20;1.00;;;;;;5066020;28;20234;-82
2023/10/31 09:10:20;;;;;;;2.57;1.33;;;11.40;1.00;;;;;;5078445;28;20201;-81
2023/10/31 09:12:47;;;;;;;0.77;0.50;;;11.50;1.00;;;;;;5078132;28;20318;-81
2023/10/31 09:15:15;;;;;;;0.60;0.43;;;11.40;1.00;;;;;;5077324;28;20198;-80
2023/10/31 09:17:43;;;;;;;1.53;0.47;;;11.50;1.00;;;;;;5087433;28;20203;-80
2023/10/31 09:20:11;;;;;;;0.73;0.63;;;11.60;99.90;;;;;;5072718;28;20206;-82
2023/10/31 09:22:38;;;;;;;0.50;0.50;;;11.60;99.90;;;;;;5068875;28;20214;-81
2023/10/31 09:25:05;;;;;;;0.33;0.33;;;11.70;99.90;;;;;;5080941;28;20578;-80
2023/10/31 09:27:32;;;;;;;0.40;0.40;;;11.80;99.90;;;;;;5076836;28;20206;-81
2023/10/31 09:29:59;;;;;;;1.17;0.37;;;11.90;99.90;;;;;;5077304;28;20195;-80
2023/10/31 09:32:27;;;;;;;0.43;0.43;;;11.90;99.90;;;;;;5077801;28;20218;-81
2023/10/31 09:34:53;;;;;;;0.40;0.40;;;11.70;1.00;;;;;;5078888;28;20217;-80
2023/10/31 09:37:20;;;;;;;1.80;0.50;;;11.70;1.00;;;;;;5087473;28;20577;-83
2023/10/31 09:39:47;;;;;;;2.10;0.87;;;11.80;1.00;;;;;;5079413;28;20206;-80
2023/10/31 09:42:14;;;;;;;1.67;0.50;;;12.10;1.00;;;;;;5079019;28;20218;-83
2023/10/31 09:44:41;;;;;;;0.77;0.43;;;12.30;1.00;;;;;;5078348;28;20626;-80
2023/10/31 09:47:08;;;;;;;0.40;0.40;;;12.20;1.00;;;;;;5080056;28;20202;-82
2023/10/31 09:49:37;;;;;;;0.37;0.37;;;12.20;1.00;;;;;;5079103;28;20768;-83
2023/10/31 09:52:06;;;;;;;0.83;0.50;;;12.10;1.00;;;;;;5078845;28;20237;-81
2023/10/31 09:54:35;;;;;;;0.67;0.40;;;12.20;1.00;;;;;;5078660;28;20213;-81
2023/10/31 09:57:01;;;;;;;0.60;0.50;;;12.30;1.00;;;;;;5080257;28;20224;-80
2023/10/31 09:59:28;;;;;;;0.40;0.40;;;12.40;1.00;;;;;;5081925;28;20706;-80
2023/10/31 10:01:56;;;;;;;0.50;0.50;;;12.40;1.00;;;;;;5079792;28;20294;-81
2023/10/31 10:04:22;;;;;;;0.80;0.60;;;12.40;1.00;;;;;;5083136;28;20205;-81
2023/10/31 10:06:59;;;;;;;0.77;0.60;;;12.40;1.00;;;;;;5078308;28;20206;-80
2023/10/31 10:09:27;;;;;;;0.70;0.50;;;12.50;1.00;;;;;;5079508;28;20194;-81
2023/10/31 10:11:54;;;;;;;1.83;0.57;;;12.70;1.00;;;;;;5081653;28;20228;-80
2023/10/31 10:14:24;;;;;;;0.63;0.33;;;12.50;1.00;;;;;;5079025;28;20205;-80
2023/10/31 10:16:51;;;;;;;1.00;0.80;;;12.40;1.00;;;;;;5079742;28;20568;-81
2023/10/31 10:19:19;;;;;;;0.63;0.37;;;12.40;1.00;;;;;;5083597;28;20206;-81
2023/10/31 10:21:51;;;;;;;0.40;0.37;;;12.30;1.00;;;;;;5080778;28;20222;-80
2023/10/31 10:24:20;;;;;;;1.60;0.87;;;12.20;1.00;;;;;;5078636;28;20650;-80
2023/10/31 10:26:47;;;;;;;0.93;0.60;;;12.30;1.00;;;;;;5078667;28;20212;-79
2023/10/31 10:29:14;;;;;;;1.63;0.33;;;12.30;1.00;;;;;;5077243;28;20209;-81
2023/10/31 10:31:41;;;;;;;0.93;0.40;;;12.30;1.00;;;;;;5080391;28;20313;-81
2023/10/31 10:34:09;;;;;;;0.80;0.60;;;12.30;1.00;;;;;;5077202;28;20238;-82
2023/10/31 10:36:36;;;;;;;0.90;0.87;;;12.30;1.00;;;;;;5077307;28;20204;-82
2023/10/31 10:39:03;;;;;;;1.07;0.80;;;12.30;1.00;;;;;;5078117;28;20202;-82
2023/10/31 10:41:34;;;;;;;1.17;0.60;;;12.30;1.00;;;;;;5081921;28;20728;-81
2023/10/31 10:44:06;;;;;;;0.63;0.50;;;12.30;1.00;;;;;;5077103;28;20228;-81
2023/10/31 10:46:35;;;;;;;0.83;0.53;;;12.40;1.00;;;;;;5078684;28;20577;-79
2023/10/31 10:49:05;;;;;;;0.40;0.40;;;12.50;1.00;;;;;;5077611;28;20222;-79
2023/10/31 10:51:44;;;;;;;0.67;0.67;;;12.40;1.00;;;;;;5078560;28;20278;-81
2023/10/31 10:54:19;;;;;;;2.67;0.60;;;12.70;1.00;;;;;;5073358;28;20225;-80
2023/10/31 10:56:56;;;;;;;0.73;0.57;;;12.90;1.00;;;;;;5077145;28;20201;-80
2023/10/31 10:59:36;;;;;;;1.63;0.73;;;12.80;1.00;;;;;;5081984;28;20665;-80
2023/10/31 11:02:05;;;;;;;0.70;0.60;;;12.80;1.00;;;;;;5077901;28;20221;-81
2023/10/31 11:04:33;;;;;;;2.33;0.90;;;12.80;1.00;;;;;;5082445;28;20201;-81
2023/10/31 11:07:00;;;;;;;1.60;0.90;;;12.80;1.00;;;;;;5084181;28;20654;-79
2023/10/31 11:09:27;;;;;;;2.93;0.93;;;12.80;1.00;;;;;;5078810;28;20281;-80
2023/10/31 11:11:55;;;;;;;1.47;1.17;;;12.70;1.00;;;;;;5076707;28;20221;-81
2023/10/31 11:14:23;;;;;;;2.27;0.90;;;12.70;1.00;;;;;;5075415;28;20195;-80
2023/10/31 11:16:55;;;;;;;3.17;1.30;;;12.70;1.00;;;;;;5075602;28;20208;-81
2023/10/31 11:19:25;;;;;;;1.30;1.00;;;12.70;1.00;;;;;;5079201;28;20260;-80
2023/10/31 11:21:55;;;;;;;1.30;1.20;;;12.60;1.00;;;;;;5088583;28;20222;-81
2023/10/31 11:24:23;;;;;;;2.93;1.20;;;12.60;1.00;;;;;;5077590;28;20564;-82
2023/10/31 11:26:59;;;;;;;2.60;1.57;;;12.60;1.00;;;;;;5078847;28;20206;-80
2023/10/31 11:29:26;;;;;;;2.53;1.67;;;12.60;1.00;;;;;;5079043;28;20290;-80
2023/10/31 11:31:55;;;;;;;3.63;1.60;;;12.70;1.00;;;;;;5081741;28;20217;-79
2023/10/31 11:34:22;;;;;;;1.33;1.17;;;12.70;1.00;;;;;;5077404;28;20201;-80
2023/10/31 11:36:48;;;;;;;2.50;1.80;;;12.70;1.00;;;;;;5078059;28;20217;-80
2023/10/31 11:39:20;;;;;;;3.03;2.30;;;12.80;1.00;;;;;;5079802;28;20713;-79
2023/10/31 11:41:50;;;;;;;2.90;1.70;;;12.80;1.00;;;;;;5075009;28;20226;-78
2023/10/31 11:44:18;;;;;;;2.80;2.10;;;12.70;1.00;;;;;;5079213;28;20213;-80
2023/10/31 11:46:50;;;;;;;2.87;2.30;;;12.60;1.00;;;;;;5078231;28;20226;-79
2023/10/31 11:49:17;;;;;;;2.47;2.10;;;12.60;1.00;;;;;;5078518;28;20650;-79
2023/10/31 11:51:46;;;;;;;2.67;1.90;;;12.60;1.00;;;;;;5080238;28;20272;-80
2023/10/31 11:54:14;;;;;;;2.20;1.87;;;12.70;1.00;;;;;;5080753;28;20218;-80
2023/10/31 11:56:41;;;;;;;5.60;2.10;;;12.60;1.00;;;;;;5077178;28;20653;-80
2023/10/31 11:59:08;;;;;;;3.17;2.07;;;12.70;1.00;;;;;;5080516;28;20280;-80
2023/10/31 12:01:45;;;;;;;2.40;2.20;;;12.60;1.00;;;;;;5077571;28;20218;-79
2023/10/31 12:04:22;;;;;;;4.93;2.47;;;13.20;1.00;;;;;;5079493;28;20189;-80
2023/10/31 12:06:58;;;;;;;2.80;2.50;;;14.20;1.00;;;;;;5081078;28;20206;-79
2023/10/31 12:09:25;;;;;;;3.07;2.33;;;13.50;1.00;;;;;;5081154;28;20657;-79
2023/10/31 12:11:51;;;;;;;2.90;2.20;;;15.10;1.00;;;;;;5079026;28;20232;-79
2023/10/31 12:14:20;;;;;;;3.57;2.50;;;14.20;99.90;;;;;;5078197;28;20298;-78
2023/10/31 12:16:49;;;;;;;3.38;2.25;;;14.00;99.90;;;;;;5080216;28;20202;-79
2023/10/31 12:19:15;;;;;;;2.92;2.10;;;14.00;99.90;;;;;;5077419;28;20538;-79
2023/10/31 12:21:46;;;;;;;2.72;2.53;;;14.00;99.90;;;;;;5079724;28;20664;-78
2023/10/31 12:24:15;;;;;;;5.30;2.43;;;13.80;99.90;;;;;;5077203;28;20643;-79
2023/10/31 12:26:42;;;;;;;5.23;2.70;;;13.50;99.90;;;;;;5082356;28;20206;-79
2023/10/31 12:29:11;;;;;;;3.30;2.70;;;13.60;99.90;;;;;;5078212;28;20224;-79
2023/10/31 12:31:41;;;;;;;5.10;2.97;;;13.40;99.90;;;;;;5079999;28;20221;-80
2023/10/31 12:34:10;;;;;;;3.33;2.83;;;13.20;1.00;;;;;;5081568;28;20221;-79
2023/10/31 12:36:37;;;;;;;4.03;3.43;;;13.10;1.00;;;;;;5081395;28;20229;-79
2023/10/31 12:39:05;;;;;;;4.73;3.57;;;12.90;1.00;;;;;;5079731;28;20684;-78
2023/10/31 12:41:33;;;;;;;3.93;3.30;;;12.90;1.00;;;;;;5085266;28;20222;-78
2023/10/31 12:44:02;;;;;;;6.90;3.93;;;12.90;1.00;;;;;;5081706;28;20225;-80
2023/10/31 12:46:30;;;;;;;4.93;3.80;;;12.80;1.00;;;;;;5082822;28;20256;-78
2023/10/31 12:48:57;;;;;;;5.00;3.50;;;12.70;1.00;;;;;;5082748;28;20214;-79
2023/10/31 12:51:26;;;;;;;4.30;3.50;;;12.80;1.00;;;;;;5081156;28;20230;-80
2023/10/31 12:53:53;;;;;;;4.77;3.40;;;13.50;1.00;;;;;;5077278;28;20693;-78